createdAt,value
2022-07-30T00:00:47.230Z,24.92
2022-07-30T00:05:44.190Z,24.44
2022-07-30T00:10:41.772Z,25.02
2022-07-30T00:15:39.743Z,24.92
2022-07-30T00:20:39.639Z,24.67
2022-07-30T00:25:40.395Z,24.16
2022-07-30T00:30:38.325Z,24.21
2022-07-30T00:35:39.683Z,24.47
2022-07-30T00:40:37.058Z,24.54
2022-07-30T00:45:35.294Z,24.63
2022-07-30T00:50:33.512Z,24.08
2022-07-30T00:55:34.066Z,24.70
2022-07-30T01:00:39.598Z,23.91
2022-07-30T01:05:36.646Z,24.67
2022-07-30T01:10:34.699Z,24.38
2022-07-30T01:15:32.812Z,24.44
2022-07-30T01:20:37.363Z,24.47
2022-07-30T01:25:55.706Z,24.51
2022-07-30T01:30:54.711Z,24.18
2022-07-30T01:35:57.814Z,23.96
2022-07-30T01:40:57.475Z,24.11
2022-07-30T01:45:56.084Z,24.15
2022-07-30T01:50:56.382Z,23.63
2022-07-30T01:55:56.109Z,23.85
2022-07-30T02:00:58.036Z,24.03
2022-07-30T02:06:11.601Z,24.62
2022-07-30T02:11:12.534Z,24.60
2022-07-30T02:16:15.262Z,24.62
2022-07-30T02:21:16.814Z,24.04
2022-07-30T02:26:18.755Z,24.23
2022-07-30T02:31:33.981Z,23.95
2022-07-30T02:36:36.309Z,23.39
2022-07-30T02:41:38.861Z,23.25
2022-07-30T02:46:39.528Z,23.55
2022-07-30T02:52:18.721Z,23.70
2022-07-30T02:57:34.342Z,23.45
2022-07-30T03:02:33.429Z,23.40
2022-07-30T03:07:32.213Z,23.43
2022-07-30T03:12:32.376Z,23.16
2022-07-30T03:17:37.702Z,23.20
2022-07-30T03:22:40.052Z,23.23
2022-07-30T03:27:42.483Z,23.14
2022-07-30T03:32:53.510Z,22.80
2022-07-30T03:38:05.164Z,22.74
2022-07-30T03:43:18.305Z,23.03
2022-07-30T03:48:26.893Z,23.43
2022-07-30T03:53:27.219Z,23.77
2022-07-30T03:58:44.326Z,23.65
2022-07-30T04:03:42.290Z,23.70
2022-07-30T04:08:39.266Z,23.76
2022-07-30T04:13:55.192Z,23.39
2022-07-30T04:19:02.769Z,24.12
2022-07-30T04:24:03.936Z,24.26
2022-07-30T04:29:05.599Z,25.19
2022-07-30T04:34:05.844Z,26.05
2022-07-30T04:39:11.404Z,26.16
2022-07-30T04:44:09.439Z,25.55
2022-07-30T04:49:16.932Z,25.84
2022-07-30T04:54:15.357Z,25.74
2022-07-30T04:59:16.811Z,25.19
2022-07-30T05:04:15.410Z,25.30
2022-07-30T05:09:16.069Z,25.46
2022-07-30T05:14:15.333Z,25.13
2022-07-30T05:19:21.384Z,25.26
2022-07-30T05:24:19.128Z,24.89
2022-07-30T05:29:24.941Z,25.57
2022-07-30T05:34:29.589Z,25.75
2022-07-30T05:39:33.219Z,26.78
2022-07-30T05:44:46.845Z,28.33
2022-07-30T05:49:47.382Z,29.09
2022-07-30T05:54:46.089Z,29.95
2022-07-30T06:00:01.088Z,31.01
2022-07-30T06:05:19.486Z,32.01
2022-07-30T06:10:17.481Z,32.00
2022-07-30T06:15:20.542Z,32.52
2022-07-30T06:20:27.780Z,33.08
2022-07-30T06:25:38.972Z,33.18
2022-07-30T06:30:40.619Z,34.17
2022-07-30T06:35:40.395Z,34.74
2022-07-30T06:40:44.759Z,35.26
2022-07-30T06:45:48.787Z,35.85
2022-07-30T06:50:52.818Z,37.12
2022-07-30T06:56:20.095Z,36.50
2022-07-30T07:01:37.383Z,36.83
2022-07-30T07:06:35.172Z,37.23
2022-07-30T07:11:34.606Z,37.01
2022-07-30T07:16:43.202Z,38.89
2022-07-30T12:48:40.905Z,36.93
2022-07-30T16:24:00.383Z,35.75
2022-07-30T17:26:37.250Z,33.79
